createdAt,value
2019-03-03T00:00:18.198Z,3.53
2019-03-03T00:02:48.852Z,4.63
2019-03-03T00:05:19.648Z,4.37
2019-03-03T00:07:50.543Z,4.53
2019-03-03T00:10:21.110Z,3.17
2019-03-03T00:12:51.680Z,3.60
2019-03-03T00:15:22.400Z,4.40
2019-03-03T00:17:53.351Z,5.00
2019-03-03T00:20:23.883Z,5.90
2019-03-03T00:22:54.464Z,4.80
2019-03-03T00:25:25.008Z,5.83
2019-03-03T00:27:55.622Z,5.83
2019-03-03T00:30:26.764Z,5.40
2019-03-03T00:32:57.297Z,4.90
2019-03-03T00:35:27.726Z,5.20
2019-03-03T00:38:12.150Z,4.80
2019-03-03T00:40:59.005Z,5.50
2019-03-03T00:43:47.856Z,5.53
2019-03-03T00:46:34.520Z,5.47
2019-03-03T00:49:32.840Z,4.60
2019-03-03T00:52:25.159Z,5.30
2019-03-03T00:55:17.779Z,5.87
2019-03-03T00:58:02.198Z,5.50
2019-03-03T01:00:44.796Z,5.97
2019-03-03T01:03:33.147Z,4.87
2019-03-03T01:06:10.266Z,5.47
2019-03-03T01:08:59.823Z,4.43
2019-03-03T01:11:43.468Z,3.67
2019-03-03T01:14:33.604Z,3.70
2019-03-03T01:17:19.498Z,4.40
2019-03-03T01:20:07.822Z,4.90
2019-03-03T01:23:06.083Z,4.73
2019-03-03T01:25:36.745Z,4.70
2019-03-03T01:28:07.691Z,3.63
2019-03-03T01:30:38.653Z,3.90
2019-03-03T01:33:10.102Z,4.80
2019-03-03T01:35:40.594Z,5.60
2019-03-03T01:38:11.071Z,5.40
2019-03-03T01:40:41.526Z,5.60
2019-03-03T01:43:11.998Z,6.27
2019-03-03T01:45:42.508Z,6.70
2019-03-03T01:48:13.036Z,5.60
2019-03-03T01:50:43.588Z,5.83
2019-03-03T01:53:14.100Z,6.47
2019-03-03T01:55:44.602Z,4.50
2019-03-03T01:58:18.132Z,5.23
2019-03-03T02:00:49.010Z,4.10
2019-03-03T02:03:19.793Z,4.77
2019-03-03T02:05:50.520Z,5.80
2019-03-03T02:08:21.100Z,5.57
2019-03-03T02:10:51.611Z,7.13
2019-03-03T02:13:22.261Z,6.60
2019-03-03T02:15:52.783Z,6.27
2019-03-03T02:18:23.297Z,6.90
2019-03-03T02:20:54.029Z,5.97
2019-03-03T02:23:24.589Z,6.47
2019-03-03T02:25:55.353Z,6.33
2019-03-03T02:28:25.746Z,5.70
2019-03-03T02:30:56.875Z,5.57
2019-03-03T02:33:27.353Z,4.77
2019-03-03T02:35:57.782Z,4.60
2019-03-03T02:38:28.408Z,4.87
2019-03-03T02:40:59.075Z,4.80
2019-03-03T02:43:29.790Z,5.13
2019-03-03T02:46:00.408Z,5.10
2019-03-03T02:48:30.816Z,4.83
2019-03-03T02:51:01.273Z,5.00
2019-03-03T02:53:31.725Z,4.80
2019-03-03T02:56:02.237Z,4.63
2019-03-03T02:58:32.602Z,4.13
2019-03-03T03:01:08.457Z,4.33
2019-03-03T03:03:38.891Z,4.87
2019-03-03T03:06:26.804Z,4.93
2019-03-03T03:09:28.229Z,5.27
2019-03-03T03:12:20.534Z,4.77
2019-03-03T03:15:09.874Z,4.60
2019-03-03T03:18:08.417Z,4.60
2019-03-03T03:21:03.991Z,5.13
2019-03-03T03:23:52.169Z,4.70
2019-03-03T03:26:50.767Z,5.63
2019-03-03T03:29:37.453Z,5.20
2019-03-03T03:32:29.845Z,4.93
2019-03-03T03:35:21.681Z,6.13
2019-03-03T03:38:08.110Z,4.37
2019-03-03T03:41:09.747Z,4.97
2019-03-03T03:43:58.529Z,5.37
2019-03-03T03:46:52.824Z,5.67
2019-03-03T03:49:48.160Z,4.90
2019-03-03T03:52:37.503Z,5.20
2019-03-03T03:55:27.974Z,5.13
2019-03-03T03:58:08.363Z,4.20
2019-03-03T04:00:57.706Z,4.27
2019-03-03T04:04:07.256Z,4.70
2019-03-03T04:07:02.385Z,4.27
2019-03-03T04:09:43.351Z,4.23
2019-03-03T04:12:35.318Z,3.43
2019-03-03T04:15:31.607Z,3.83
2019-03-03T04:18:30.074Z,4.07
2019-03-03T04:21:25.285Z,3.80
2019-03-03T04:24:15.671Z,4.50
2019-03-03T04:26:58.432Z,4.37
2019-03-03T04:29:39.311Z,5.30
2019-03-03T04:32:24.751Z,5.50
2019-03-03T04:35:26.248Z,5.87
2019-03-03T04:38:10.556Z,3.57
2019-03-03T04:40:58.786Z,4.97
2019-03-03T04:43:35.404Z,5.07
2019-03-03T04:46:15.157Z,4.60
2019-03-03T04:48:55.445Z,5.37
2019-03-03T04:51:43.096Z,5.47
2019-03-03T04:54:38.472Z,5.50
2019-03-03T04:57:46.175Z,4.83
2019-03-03T05:00:38.330Z,5.60
2019-03-03T05:03:27.635Z,4.97
2019-03-03T05:06:19.775Z,5.20
2019-03-03T05:09:09.993Z,6.13
2019-03-03T05:12:57.942Z,5.10
2019-03-03T05:15:58.517Z,5.27
2019-03-03T05:18:47.886Z,5.77
2019-03-03T05:21:18.299Z,5.03
2019-03-03T05:23:48.814Z,4.93
2019-03-03T05:26:19.457Z,4.70
2019-03-03T05:28:49.906Z,4.40
2019-03-03T05:31:20.346Z,4.23
2019-03-03T05:33:50.781Z,4.30
2019-03-03T05:36:21.243Z,3.60
2019-03-03T05:38:51.791Z,3.10
2019-03-03T05:41:22.288Z,4.00
2019-03-03T05:43:52.893Z,3.70
2019-03-03T05:46:23.334Z,4.00
2019-03-03T05:48:53.810Z,3.50
2019-03-03T05:51:24.557Z,3.73
2019-03-03T05:53:55.068Z,4.00
2019-03-03T05:56:25.613Z,4.23
2019-03-03T05:58:56.084Z,3.80
2019-03-03T06:01:26.878Z,3.77
2019-03-03T06:03:57.335Z,3.60
2019-03-03T06:06:27.762Z,3.80
2019-03-03T06:08:58.203Z,3.63
2019-03-03T06:11:28.708Z,5.57
2019-03-03T06:14:02.234Z,4.33
2019-03-03T06:16:32.756Z,4.67
2019-03-03T06:19:03.594Z,3.87
2019-03-03T06:21:34.053Z,3.90
2019-03-03T06:24:04.585Z,3.73
2019-03-03T06:26:35.247Z,3.80
2019-03-03T06:29:05.712Z,4.63
2019-03-03T06:31:36.168Z,4.70
2019-03-03T06:34:06.616Z,4.83
2019-03-03T06:36:37.065Z,4.80
2019-03-03T06:39:08.852Z,4.40
2019-03-03T06:41:39.323Z,5.13
2019-03-03T06:44:09.814Z,3.80
2019-03-03T06:46:40.501Z,4.90
2019-03-03T06:49:10.979Z,3.87
2019-03-03T06:51:41.470Z,5.50
2019-03-03T06:54:12.005Z,3.67
2019-03-03T06:56:42.430Z,3.80
2019-03-03T06:59:13.095Z,5.07
2019-03-03T07:01:43.555Z,5.27
2019-03-03T07:04:13.963Z,4.50
2019-03-03T07:06:44.418Z,4.30
2019-03-03T07:09:14.912Z,4.03
2019-03-03T07:11:45.446Z,4.30
2019-03-03T07:14:15.888Z,3.90
2019-03-03T07:16:46.348Z,3.30
2019-03-03T07:19:17.100Z,5.00
2019-03-03T07:21:47.566Z,4.47
2019-03-03T07:24:18.050Z,5.50
2019-03-03T07:26:48.929Z,4.23
2019-03-03T07:29:19.556Z,4.93
2019-03-03T07:31:50.175Z,4.00
2019-03-03T07:34:20.624Z,3.90
2019-03-03T07:36:51.439Z,4.65
2019-03-03T07:39:22.571Z,4.17
2019-03-03T07:41:53.386Z,4.13
2019-03-03T07:44:24.102Z,4.30
2019-03-03T07:46:54.599Z,4.23
2019-03-03T07:49:25.125Z,5.13
2019-03-03T07:51:55.699Z,4.47
2019-03-03T07:54:26.197Z,3.77
2019-03-03T07:56:57.396Z,4.23
2019-03-03T07:59:27.838Z,4.20
2019-03-03T08:01:58.716Z,4.90
2019-03-03T08:04:29.825Z,3.60
2019-03-03T08:07:00.362Z,3.30
2019-03-03T08:09:30.826Z,4.53
2019-03-03T08:12:01.280Z,3.47
2019-03-03T08:14:31.816Z,4.60
2019-03-03T08:17:02.384Z,3.43
2019-03-03T08:19:32.858Z,3.20
2019-03-03T08:22:03.463Z,3.47
2019-03-03T08:24:34.133Z,3.10
2019-03-03T08:27:08.848Z,3.50
2019-03-03T08:29:39.849Z,3.90
2019-03-03T08:32:10.302Z,3.97
2019-03-03T08:34:40.745Z,3.70
2019-03-03T08:37:11.824Z,3.60
2019-03-03T08:39:43.572Z,3.80
